createdAt,value
2023-04-15T00:02:16.547Z,8.06
2023-04-15T00:04:43.353Z,8.12
2023-04-15T00:07:10.345Z,7.97
2023-04-15T00:09:38.172Z,8.01
2023-04-15T00:12:05.788Z,8.11
2023-04-15T00:14:32.465Z,8.13
2023-04-15T00:16:59.453Z,8.15
2023-04-15T00:19:26.143Z,7.95
2023-04-15T00:21:52.946Z,8.14
2023-04-15T00:24:19.630Z,8.14
2023-04-15T00:26:46.417Z,8.09
2023-04-15T00:29:16.631Z,7.82
2023-04-15T00:31:43.629Z,8.06
2023-04-15T00:34:10.899Z,8.04
2023-04-15T00:36:37.827Z,7.87
2023-04-15T00:39:05.616Z,8.04
2023-04-15T00:41:34.206Z,7.89
2023-04-15T00:44:02.647Z,7.92
2023-04-15T00:46:31.202Z,7.93
2023-04-15T00:49:04.129Z,7.97
2023-04-15T00:51:33.679Z,7.97
2023-04-15T00:54:01.010Z,8.03
2023-04-15T00:56:29.581Z,8.09
2023-04-15T00:58:57.578Z,7.90
2023-04-15T01:01:25.716Z,8.19
2023-04-15T01:03:52.922Z,8.16
2023-04-15T01:06:19.966Z,8.09
2023-04-15T01:08:46.844Z,8.13
2023-04-15T01:11:14.140Z,7.98
2023-04-15T01:13:41.196Z,8.13
2023-04-15T01:16:08.981Z,8.14
2023-04-15T01:18:37.997Z,8.08
2023-04-15T01:21:06.116Z,7.98
2023-04-15T01:23:37.058Z,8.22
2023-04-15T01:26:03.930Z,8.23
2023-04-15T01:28:34.008Z,8.07
2023-04-15T01:31:14.072Z,8.23
2023-04-15T01:33:42.672Z,8.18
2023-04-15T01:36:11.032Z,8.19
2023-04-15T01:38:39.387Z,8.24
2023-04-15T01:41:08.257Z,8.10
2023-04-15T01:43:37.382Z,8.05
2023-04-15T01:46:04.040Z,8.15
2023-04-15T01:48:30.871Z,8.05
2023-04-15T01:51:02.506Z,8.04
2023-04-15T01:53:29.683Z,8.04
2023-04-15T01:55:56.426Z,7.91
2023-04-15T01:58:23.317Z,8.03
2023-04-15T02:00:50.010Z,7.94
2023-04-15T02:03:17.272Z,7.95
2023-04-15T02:05:44.219Z,7.93
2023-04-15T02:08:11.133Z,7.82
2023-04-15T02:10:39.077Z,7.89
2023-04-15T02:13:05.855Z,8.11
2023-04-15T02:15:33.727Z,8.04
2023-04-15T02:18:01.246Z,7.84
2023-04-15T02:20:28.163Z,7.88
2023-04-15T02:22:54.862Z,8.09
2023-04-15T02:25:21.770Z,7.92
2023-04-15T02:27:48.565Z,8.03
2023-04-15T02:30:15.459Z,8.05
2023-04-15T02:32:45.432Z,7.93
2023-04-15T02:35:12.702Z,8.04
2023-04-15T02:37:45.956Z,7.93
2023-04-15T02:40:13.570Z,7.99
2023-04-15T02:42:41.345Z,7.90
2023-04-15T02:45:08.814Z,7.74
2023-04-15T02:47:36.383Z,7.75
2023-04-15T02:50:04.837Z,7.62
2023-04-15T02:52:31.653Z,7.56
2023-04-15T02:55:00.942Z,7.64
2023-04-15T02:57:31.235Z,7.22
2023-04-15T02:59:57.895Z,7.70
2023-04-15T03:02:25.869Z,7.47
2023-04-15T03:04:56.968Z,7.43
2023-04-15T03:07:23.725Z,7.42
2023-04-15T03:09:50.415Z,7.55
2023-04-15T03:12:17.181Z,7.43
2023-04-15T03:14:44.926Z,7.75
2023-04-15T03:17:11.678Z,7.59
2023-04-15T03:19:38.397Z,7.29
2023-04-15T03:22:05.131Z,7.42
2023-04-15T03:24:31.854Z,7.51
2023-04-15T03:26:59.143Z,7.42
2023-04-15T03:29:26.180Z,7.33
2023-04-15T03:31:53.143Z,7.33
2023-04-15T03:34:20.542Z,7.17
2023-04-15T03:36:47.472Z,7.22
2023-04-15T03:39:14.171Z,7.24
2023-04-15T03:41:41.229Z,7.02
2023-04-15T03:44:07.982Z,7.08
2023-04-15T03:46:34.753Z,6.90
2023-04-15T03:49:02.711Z,7.05
2023-04-15T03:51:29.709Z,7.00
2023-04-15T03:53:56.406Z,7.04
2023-04-15T03:56:23.168Z,6.94
2023-04-15T03:58:49.885Z,6.95
2023-04-15T04:01:16.750Z,6.91
2023-04-15T04:03:43.724Z,6.72
2023-04-15T04:06:12.614Z,6.78
2023-04-15T04:08:39.420Z,6.87
2023-04-15T04:11:06.776Z,6.69
2023-04-15T04:13:33.572Z,6.84
2023-04-15T04:16:00.296Z,6.82
2023-04-15T04:18:27.147Z,6.81
2023-04-15T04:20:54.058Z,6.76
2023-04-15T04:23:20.877Z,6.75
2023-04-15T04:25:47.845Z,6.67
2023-04-15T04:28:14.523Z,6.57
2023-04-15T04:30:41.309Z,6.62
2023-04-15T04:33:08.036Z,6.65
2023-04-15T04:35:37.818Z,6.62
2023-04-15T04:38:05.120Z,6.45
2023-04-15T04:40:31.804Z,6.48
2023-04-15T04:42:58.575Z,6.60
2023-04-15T04:45:25.327Z,6.59
2023-04-15T04:47:52.135Z,6.69
2023-04-15T04:50:19.887Z,6.74
2023-04-15T04:52:46.902Z,6.75
2023-04-15T04:55:13.526Z,6.91
2023-04-15T04:57:40.208Z,6.95
2023-04-15T05:00:09.150Z,6.87
2023-04-15T05:02:36.412Z,6.93
2023-04-15T05:05:03.245Z,6.92
2023-04-15T05:07:29.956Z,6.90
2023-04-15T05:09:56.824Z,6.93
2023-04-15T05:12:23.556Z,6.95
2023-04-15T05:14:50.416Z,6.96
2023-04-15T05:17:17.090Z,6.79
2023-04-15T05:19:46.254Z,7.02
2023-04-15T05:22:32.116Z,7.09
2023-04-15T05:24:58.789Z,7.09
2023-04-15T05:27:25.890Z,7.20
2023-04-15T05:29:52.564Z,7.26
2023-04-15T05:32:19.404Z,7.31
2023-04-15T05:34:46.520Z,7.38
2023-04-15T05:37:16.891Z,7.34
2023-04-15T05:39:43.873Z,7.39
2023-04-15T05:42:10.831Z,7.36
2023-04-15T05:44:37.570Z,7.51
2023-04-15T05:47:05.384Z,7.71
2023-04-15T05:49:32.201Z,7.93
2023-04-15T05:51:58.907Z,8.22
2023-04-15T05:54:26.817Z,8.58
2023-04-15T05:56:54.037Z,9.49
2023-04-15T05:59:21.146Z,10.34
2023-04-15T06:01:48.243Z,10.83
2023-04-15T06:04:16.725Z,10.88
2023-04-15T06:06:43.930Z,10.58
2023-04-15T06:09:10.637Z,10.57
2023-04-15T06:11:38.373Z,10.25
2023-04-15T06:14:05.150Z,10.37
2023-04-15T06:16:31.849Z,10.63
2023-04-15T06:18:58.792Z,10.71
2023-04-15T06:21:27.158Z,11.02
2023-04-15T06:23:54.041Z,11.00
2023-04-15T06:26:21.087Z,10.90
2023-04-15T06:28:48.921Z,10.98
2023-04-15T06:31:16.213Z,10.94
2023-04-15T06:33:42.955Z,10.98
2023-04-15T06:36:09.635Z,10.94
2023-04-15T06:38:36.745Z,10.93
2023-04-15T06:41:04.643Z,10.87
2023-04-15T06:43:31.458Z,10.51
2023-04-15T06:45:58.393Z,10.50
2023-04-15T06:48:25.306Z,10.38
2023-04-15T06:50:52.228Z,10.32
2023-04-15T06:53:19.143Z,10.32
2023-04-15T06:55:46.141Z,10.19
2023-04-15T06:58:12.793Z,10.07
2023-04-15T07:00:40.533Z,9.97
2023-04-15T07:03:10.316Z,9.78
2023-04-15T07:05:37.187Z,9.87
2023-04-15T07:08:04.426Z,9.79
2023-04-15T07:10:31.401Z,9.61
2023-04-15T07:12:58.066Z,9.60
2023-04-15T07:15:25.388Z,9.38
2023-04-15T07:17:52.072Z,9.26
2023-04-15T07:20:18.913Z,9.37
2023-04-15T07:22:45.644Z,9.51
2023-04-15T07:25:12.736Z,9.49
2023-04-15T07:27:39.516Z,9.21
2023-04-15T07:30:07.046Z,9.35
2023-04-15T07:32:33.762Z,9.59
2023-04-15T07:35:00.498Z,9.39
2023-04-15T07:37:28.545Z,9.45
2023-04-15T07:39:55.693Z,9.53
2023-04-15T07:42:22.760Z,9.51
2023-04-15T07:44:49.518Z,9.44
2023-04-15T07:47:16.372Z,9.56
2023-04-15T07:49:43.677Z,9.61
2023-04-15T07:52:10.515Z,9.65
2023-04-15T07:54:37.304Z,9.67
2023-04-15T07:57:03.951Z,9.72
2023-04-15T07:59:33.662Z,9.77
2023-04-15T08:02:00.884Z,9.76
2023-04-15T08:04:27.737Z,10.08
2023-04-15T08:06:54.992Z,10.03
2023-04-15T08:09:22.715Z,10.05
2023-04-15T08:11:50.290Z,10.09
2023-04-15T08:14:17.296Z,9.94
2023-04-15T08:16:44.181Z,10.10
2023-04-15T08:19:10.899Z,10.22
2023-04-15T08:21:38.809Z,10.23
2023-04-15T08:24:06.452Z,10.25
2023-04-15T08:26:33.148Z,10.14
2023-04-15T08:29:00.030Z,10.14
2023-04-15T08:31:30.051Z,10.31
2023-04-15T08:33:57.879Z,10.27
2023-04-15T08:36:24.871Z,10.29
2023-04-15T08:38:51.483Z,10.11
2023-04-15T08:41:25.530Z,10.32
2023-04-15T08:44:03.734Z,10.36
2023-04-15T08:46:35.068Z,10.37
2023-04-15T08:49:04.900Z,10.35
2023-04-15T08:51:33.856Z,10.32
2023-04-15T08:54:01.802Z,10.40
2023-04-15T08:56:33.156Z,10.49
2023-04-15T08:59:00.824Z,10.50
2023-04-15T09:01:28.385Z,10.38
2023-04-15T09:03:57.309Z,10.50
2023-04-15T09:06:24.519Z,10.52
2023-04-15T09:08:52.361Z,10.53
2023-04-15T09:11:20.384Z,10.38
2023-04-15T09:13:47.271Z,10.48
2023-04-15T09:16:14.616Z,10.37
2023-04-15T09:18:41.423Z,10.33
2023-04-15T09:21:11.563Z,10.44
2023-04-15T09:23:40.697Z,10.53
2023-04-15T09:26:09.446Z,10.53
2023-04-15T09:28:43.317Z,10.56
2023-04-15T09:31:11.017Z,10.65
2023-04-15T09:33:55.048Z,10.74
2023-04-15T09:36:21.838Z,10.87
2023-04-15T09:38:59.341Z,10.85
2023-04-15T09:41:27.094Z,10.89
2023-04-15T09:43:53.866Z,10.85
2023-04-15T09:46:20.693Z,11.00
2023-04-15T09:48:47.756Z,11.08
2023-04-15T09:51:14.636Z,10.94
2023-04-15T09:53:41.697Z,11.04
2023-04-15T09:56:10.649Z,10.87
2023-04-15T09:58:39.021Z,10.93
2023-04-15T10:01:08.048Z,10.87
2023-04-15T10:03:37.080Z,10.88
2023-04-15T10:06:05.716Z,10.89
2023-04-15T10:08:35.106Z,11.05
2023-04-15T10:11:05.702Z,10.95
2023-04-15T10:13:37.556Z,11.34
2023-04-15T10:16:04.533Z,11.71
2023-04-15T10:18:34.782Z,11.85
2023-04-15T10:21:02.358Z,11.96
2023-04-15T10:23:29.591Z,11.70
2023-04-15T10:25:56.740Z,11.99
2023-04-15T10:28:23.473Z,11.85
2023-04-15T10:30:50.268Z,11.65
2023-04-15T10:33:20.719Z,11.74
2023-04-15T10:35:50.297Z,11.79
2023-04-15T10:38:37.590Z,11.89
2023-04-15T10:41:21.180Z,12.09
2023-04-15T10:44:02.612Z,11.91
2023-04-15T10:46:47.549Z,12.17
2023-04-15T10:49:25.567Z,12.58
2023-04-15T10:51:57.290Z,13.03
2023-04-15T10:54:26.723Z,13.05
2023-04-15T10:57:21.677Z,12.75
2023-04-15T11:00:11.715Z,12.61
2023-04-15T11:02:48.485Z,12.58
2023-04-15T11:05:16.486Z,12.93
2023-04-15T11:07:52.322Z,13.36
2023-04-15T11:10:20.904Z,13.58
2023-04-15T11:12:57.782Z,13.51
2023-04-15T11:15:34.614Z,13.76
2023-04-15T11:18:17.682Z,13.77
2023-04-15T11:20:46.769Z,13.21
2023-04-15T11:23:15.838Z,13.20
2023-04-15T11:25:44.035Z,13.24
2023-04-15T11:28:12.477Z,13.36
2023-04-15T11:30:40.399Z,13.15
2023-04-15T11:33:09.432Z,12.81
2023-04-15T11:35:36.922Z,13.08
2023-04-15T11:38:12.293Z,13.27
2023-04-15T11:40:40.508Z,13.26
2023-04-15T11:43:21.123Z,13.03
2023-04-15T11:45:59.433Z,12.91
2023-04-15T11:48:28.941Z,12.75
2023-04-15T11:51:00.934Z,12.66
2023-04-15T11:53:57.533Z,12.52
2023-04-15T11:56:26.807Z,12.44
2023-04-15T11:58:57.310Z,12.37
2023-04-15T12:01:36.628Z,12.22
2023-04-15T12:04:13.018Z,12.09
2023-04-15T12:06:39.877Z,11.90
2023-04-15T12:09:16.923Z,11.79
2023-04-15T12:11:57.857Z,11.87
2023-04-15T12:14:29.626Z,11.92
2023-04-15T12:17:05.526Z,11.91
2023-04-15T12:19:38.170Z,11.94
2023-04-15T12:22:07.211Z,11.95
2023-04-15T12:24:36.125Z,11.92
2023-04-15T12:27:11.489Z,12.00
2023-04-15T12:29:40.289Z,11.96
2023-04-15T12:32:09.470Z,11.89
2023-04-15T12:34:39.037Z,11.80
2023-04-15T12:37:09.680Z,11.66
2023-04-15T12:39:38.762Z,11.56
2023-04-15T12:42:06.333Z,11.42
2023-04-15T12:44:33.682Z,11.48
2023-04-15T12:47:00.717Z,11.50
2023-04-15T12:49:28.056Z,11.36
2023-04-15T12:51:56.955Z,11.04
2023-04-15T12:54:24.251Z,10.48
2023-04-15T12:56:52.531Z,10.78
2023-04-15T12:59:19.273Z,10.56
2023-04-15T13:01:47.637Z,10.29
2023-04-15T13:04:15.682Z,9.96
2023-04-15T13:06:42.959Z,9.50
2023-04-15T13:09:09.767Z,9.42
2023-04-15T13:11:36.861Z,9.14
2023-04-15T13:14:05.738Z,8.95
2023-04-15T13:16:34.420Z,8.80
2023-04-15T13:19:02.334Z,8.62
2023-04-15T13:21:29.534Z,8.55
2023-04-15T13:23:56.255Z,8.61
2023-04-15T13:26:23.192Z,8.64
2023-04-15T13:29:26.142Z,8.55
2023-04-15T13:31:52.975Z,8.68
2023-04-15T13:34:20.116Z,8.56
2023-04-15T13:36:52.371Z,8.45
2023-04-15T13:39:19.116Z,8.62
2023-04-15T13:41:46.313Z,8.77
2023-04-15T13:44:13.953Z,8.77
2023-04-15T13:46:42.786Z,9.10
2023-04-15T13:49:10.583Z,9.27
2023-04-15T13:51:40.727Z,9.55
2023-04-15T13:54:08.430Z,9.84
2023-04-15T13:56:35.644Z,9.98
2023-04-15T13:59:03.300Z,10.06
2023-04-15T14:01:30.511Z,10.32
2023-04-15T14:03:57.269Z,10.46
2023-04-15T14:06:25.122Z,10.48
2023-04-15T14:08:51.816Z,10.57
2023-04-15T14:11:18.836Z,10.67
2023-04-15T14:13:45.587Z,10.84
2023-04-15T14:16:12.324Z,10.93
2023-04-15T14:18:39.100Z,10.98
2023-04-15T14:21:06.872Z,10.98
2023-04-15T14:23:33.815Z,10.98
2023-04-15T14:26:00.545Z,11.12
2023-04-15T14:28:27.377Z,11.15
2023-04-15T14:30:54.253Z,11.22
2023-04-15T14:33:20.979Z,11.28
2023-04-15T14:35:48.283Z,11.27
2023-04-15T14:38:15.056Z,11.36
2023-04-15T14:40:41.914Z,11.35
2023-04-15T14:43:08.826Z,11.33
2023-04-15T14:45:36.493Z,11.36
2023-04-15T14:48:03.467Z,11.35
2023-04-15T14:50:30.245Z,11.37
2023-04-15T14:53:00.550Z,11.23
2023-04-15T14:55:27.148Z,11.40
2023-04-15T14:57:53.887Z,11.38
2023-04-15T15:00:20.569Z,11.40
2023-04-15T15:02:48.483Z,11.41
2023-04-15T15:05:16.430Z,11.46
2023-04-15T15:07:43.391Z,11.56
2023-04-15T15:10:10.194Z,11.51
2023-04-15T15:12:36.904Z,11.54
2023-04-15T15:15:09.158Z,11.50
2023-04-15T15:17:42.817Z,11.54
2023-04-15T15:20:09.985Z,11.50
2023-04-15T15:22:36.711Z,11.56
2023-04-15T15:25:03.441Z,11.58
2023-04-15T15:27:30.115Z,11.64
2023-04-15T15:29:56.790Z,11.67
2023-04-15T15:32:23.627Z,11.67
2023-04-15T15:35:11.292Z,11.59
2023-04-15T15:37:38.301Z,11.73
2023-04-15T15:40:05.276Z,11.65
2023-04-15T15:42:32.448Z,11.74
2023-04-15T15:45:00.923Z,11.66
2023-04-15T15:47:28.712Z,11.75
2023-04-15T15:49:55.474Z,11.70
2023-04-15T15:52:24.989Z,11.72
2023-04-15T15:54:51.674Z,11.72
2023-04-15T15:57:18.362Z,11.74
2023-04-15T15:59:45.061Z,11.66
2023-04-15T16:02:13.529Z,11.82
2023-04-15T16:04:40.760Z,11.86
2023-04-15T16:07:07.581Z,11.92
2023-04-15T16:09:34.728Z,11.92
2023-04-15T16:12:02.332Z,11.89
2023-04-15T16:14:29.021Z,11.93
2023-04-15T16:16:55.921Z,11.93
2023-04-15T16:19:22.805Z,11.90
2023-04-15T16:21:49.525Z,11.89
2023-04-15T16:24:16.216Z,11.88
2023-04-15T16:26:42.877Z,11.91
2023-04-15T16:29:09.644Z,11.90
2023-04-15T16:31:38.763Z,11.91
2023-04-15T16:34:06.357Z,11.95
2023-04-15T16:36:34.962Z,11.90
2023-04-15T16:39:02.308Z,11.89
2023-04-15T16:41:29.361Z,12.00
2023-04-15T16:43:58.764Z,11.80
2023-04-15T16:46:25.669Z,11.84
2023-04-15T16:48:52.480Z,11.80
2023-04-15T16:51:19.568Z,11.68
2023-04-15T16:53:46.404Z,11.67
2023-04-15T16:56:13.063Z,11.57
2023-04-15T16:58:39.776Z,11.46
2023-04-15T17:01:06.771Z,11.30
2023-04-15T17:03:33.756Z,11.37
2023-04-15T17:06:01.706Z,11.21
2023-04-15T17:08:29.325Z,11.21
2023-04-15T17:10:57.827Z,10.94
2023-04-15T17:13:26.169Z,11.06
2023-04-15T17:15:55.138Z,11.01
2023-04-15T17:18:22.433Z,10.84
2023-04-15T17:20:49.187Z,10.91
2023-04-15T17:23:15.905Z,10.86
2023-04-15T17:25:42.554Z,10.74
2023-04-15T17:28:09.310Z,10.83
2023-04-15T17:30:36.189Z,10.70
2023-04-15T17:33:03.365Z,10.64
2023-04-15T17:35:50.085Z,10.76
2023-04-15T17:38:16.790Z,10.75
2023-04-15T17:40:44.776Z,10.72
2023-04-15T17:43:11.396Z,10.71
2023-04-15T17:45:38.154Z,10.73
2023-04-15T17:48:05.381Z,10.75
2023-04-15T17:50:32.180Z,10.78
2023-04-15T17:52:59.831Z,10.77
2023-04-15T17:55:26.765Z,10.46
2023-04-15T17:57:53.497Z,10.28
2023-04-15T18:00:20.240Z,10.10
2023-04-15T18:02:49.130Z,10.05
2023-04-15T18:05:16.466Z,10.00
2023-04-15T18:07:43.384Z,9.92
2023-04-15T18:10:12.307Z,9.91
2023-04-15T18:12:39.018Z,9.82
2023-04-15T18:15:06.479Z,9.60
2023-04-15T18:17:33.163Z,9.67
2023-04-15T18:20:00.758Z,9.47
2023-04-15T18:22:28.576Z,9.51
2023-04-15T18:24:55.486Z,9.55
2023-04-15T18:27:22.887Z,9.50
2023-04-15T18:29:51.516Z,9.43
2023-04-15T18:32:18.456Z,9.28
2023-04-15T18:34:45.583Z,9.31
2023-04-15T18:37:12.537Z,9.26
2023-04-15T18:39:39.373Z,9.18
2023-04-15T18:42:06.506Z,9.16
2023-04-15T18:44:33.294Z,9.21
2023-04-15T18:47:02.036Z,9.17
2023-04-15T18:49:28.819Z,9.13
2023-04-15T18:51:55.885Z,9.15
2023-04-15T18:54:22.728Z,9.17
2023-04-15T18:56:49.614Z,9.16
2023-04-15T18:59:29.069Z,9.05
2023-04-15T19:01:57.002Z,9.00
2023-04-15T19:04:23.750Z,8.91
2023-04-15T19:06:52.183Z,8.90
2023-04-15T19:09:18.953Z,8.85
2023-04-15T19:11:45.978Z,8.73
2023-04-15T19:14:22.745Z,8.60
2023-04-15T19:16:49.539Z,8.66
2023-04-15T19:19:16.565Z,8.49
2023-04-15T19:21:43.543Z,8.57
2023-04-15T19:24:10.728Z,8.38
2023-04-15T19:26:39.808Z,8.47
2023-04-15T19:29:06.757Z,8.42
2023-04-15T19:31:33.738Z,8.41
2023-04-15T19:34:00.449Z,8.35
2023-04-15T19:36:28.657Z,8.29
2023-04-15T19:38:55.451Z,8.27
2023-04-15T19:41:22.254Z,8.22
2023-04-15T19:43:48.959Z,8.08
2023-04-15T19:46:15.908Z,8.12
2023-04-15T19:48:42.564Z,8.08
2023-04-15T19:51:09.414Z,8.04
2023-04-15T19:53:36.340Z,7.96
2023-04-15T19:56:03.312Z,7.95
2023-04-15T19:58:30.218Z,7.93
2023-04-15T20:01:01.471Z,7.86
2023-04-15T20:03:28.894Z,7.79
2023-04-15T20:05:55.795Z,7.70
2023-04-15T20:08:22.548Z,7.71
2023-04-15T20:10:49.283Z,7.61
2023-04-15T20:13:16.355Z,7.52
2023-04-15T20:15:43.474Z,7.45
2023-04-15T20:18:10.263Z,7.41
2023-04-15T20:20:39.814Z,7.37
2023-04-15T20:23:06.906Z,7.32
2023-04-15T20:25:33.548Z,7.20
2023-04-15T20:28:01.073Z,7.17
2023-04-15T20:30:29.409Z,7.07
2023-04-15T20:32:56.279Z,6.96
2023-04-15T20:35:23.188Z,6.90
2023-04-15T20:37:50.860Z,6.80
2023-04-15T20:40:17.761Z,6.68
2023-04-15T20:42:44.590Z,6.57
2023-04-15T20:45:11.599Z,6.47
2023-04-15T20:47:38.429Z,6.46
2023-04-15T20:50:05.509Z,6.30
2023-04-15T20:52:32.331Z,6.29
2023-04-15T20:54:59.046Z,6.30
2023-04-15T20:57:26.181Z,6.29
2023-04-15T20:59:52.862Z,6.30
2023-04-15T21:02:19.683Z,6.24
2023-04-15T21:04:47.315Z,6.28
2023-04-15T21:07:14.091Z,6.26
2023-04-15T21:09:41.630Z,6.24
2023-04-15T21:12:09.081Z,6.16
2023-04-15T21:14:37.100Z,6.14
2023-04-15T21:17:10.062Z,6.09
2023-04-15T21:19:38.108Z,5.97
2023-04-15T21:22:04.842Z,5.85
2023-04-15T21:24:31.705Z,5.64
2023-04-15T21:26:58.443Z,5.73
2023-04-15T21:29:26.095Z,5.57
2023-04-15T21:31:58.951Z,5.57
2023-04-15T21:34:25.838Z,5.40
2023-04-15T21:36:52.629Z,5.35
2023-04-15T21:39:19.300Z,5.26
2023-04-15T21:41:46.479Z,5.26
2023-04-15T21:44:14.590Z,5.28
2023-04-15T21:46:41.801Z,5.25
2023-04-15T21:49:12.486Z,5.20
2023-04-15T21:51:39.263Z,5.06
2023-04-15T21:54:06.135Z,5.23
2023-04-15T21:56:32.987Z,5.23
2023-04-15T21:58:59.829Z,5.20
2023-04-15T22:08:54.899Z,5.19
2023-04-15T22:11:27.449Z,4.93
2023-04-15T22:13:55.089Z,5.07
2023-04-15T22:16:21.911Z,5.05
2023-04-15T22:18:49.101Z,5.03
2023-04-15T22:21:15.989Z,4.99
2023-04-15T22:23:47.171Z,4.91
2023-04-15T22:26:13.874Z,4.86
2023-04-15T22:28:41.062Z,4.89
2023-04-15T22:31:07.907Z,4.67
2023-04-15T22:33:34.736Z,4.82
2023-04-15T22:36:01.553Z,4.85
2023-04-15T22:38:28.303Z,4.72
2023-04-15T22:40:55.231Z,4.71
2023-04-15T22:43:22.291Z,4.77
2023-04-15T22:45:53.264Z,4.78
2023-04-15T22:48:20.194Z,4.74
2023-04-15T22:50:47.123Z,4.71
2023-04-15T22:53:15.822Z,4.56
2023-04-15T22:55:47.326Z,4.65
2023-04-15T22:58:14.963Z,4.69
2023-04-15T23:00:41.961Z,4.57
2023-04-15T23:03:08.948Z,4.38
2023-04-15T23:05:35.983Z,4.50
2023-04-15T23:08:03.436Z,4.47
2023-04-15T23:10:30.175Z,4.42
2023-04-15T23:12:56.994Z,4.41
2023-04-15T23:15:24.154Z,4.39
2023-04-15T23:17:51.051Z,4.26
2023-04-15T23:20:17.908Z,4.10
2023-04-15T23:22:45.662Z,4.08
2023-04-15T23:25:12.417Z,4.09
2023-04-15T23:27:40.187Z,4.07
2023-04-15T23:30:07.801Z,3.95
2023-04-15T23:32:36.591Z,3.93
2023-04-15T23:35:03.530Z,3.72
2023-04-15T23:37:31.866Z,3.90
2023-04-15T23:39:58.748Z,3.87
2023-04-15T23:42:26.065Z,3.92
2023-04-15T23:44:53.054Z,3.90
2023-04-15T23:47:42.934Z,3.89
2023-04-15T23:50:10.522Z,3.91
2023-04-15T23:52:37.372Z,4.02
2023-04-15T23:55:04.738Z,4.02
2023-04-15T23:57:31.461Z,3.95
2023-04-15T23:59:58.276Z,3.93
